Terminal Aerodrome Forecast
Issued by NWS Mt. Holly, NJ

Home | Current Version | Previous Version | Text Only | Print | Product List | Glossary On
Versions: 1 2 3 4 5 6 7 8 9 10 11 12 13 14 15 16 17
000
FTUS41 KPHI 111700
TAFTTN
TAF
KTTN 111734Z 1118/1218 08008KT P6SM FEW045
     FM111900 11006KT P6SM FEW050
     FM120000 VRB03KT P6SM FEW250
     FM121600 19006KT P6SM FEW050=

USA.gov is the U.S. government's official web portal to all federal, state and local government web resources and services.